Time;durP1;ratioP1;P1;durP2;ratioP2;P2;SDS_P1;SDS_P2;PMS_P1;PMS_P2;Temp;Humidity;BMP_temperature;BMP_pressure;BME280_temperature;BME280_humidity;BME280_pressure;Samples;Min_cycle;Max_cycle;Signal;HPM_P1;HPM_P2
2022/08/28 00:00:55;;;;;;;6.30;2.35;;;;;;;;;;5010075;28;20042;-85
2022/08/28 00:03:20;;;;;;;3.58;2.10;;;;;;;;;;5011038;28;20065;-85
2022/08/28 00:05:46;;;;;;;8.25;2.30;;;;;;;;;;4998559;28;20079;-85
2022/08/28 00:08:14;;;;;;;5.50;2.58;;;;;;;;;;4990551;28;20125;-84
2022/08/28 00:10:40;;;;;;;6.78;1.98;;;;;;;;;;5002997;28;20045;-84
2022/08/28 00:13:07;;;;;;;3.78;1.98;;;;;;;;;;4989029;28;20034;-83
2022/08/28 00:15:36;;;;;;;4.22;2.10;;;;;;;;;;4999162;28;20038;-84
2022/08/28 00:18:04;;;;;;;4.82;1.83;;;;;;;;;;5001095;28;20039;-84
2022/08/28 00:20:32;;;;;;;2.78;1.77;;;;;;;;;;4991720;28;20038;-84
2022/08/28 00:22:59;;;;;;;3.60;2.00;;;;;;;;;;5012497;28;20051;-84
2022/08/28 00:25:26;;;;;;;3.63;1.90;;;;;;;;;;5002759;28;20050;-84
2022/08/28 00:27:55;;;;;;;3.58;1.80;;;;;;;;;;5004650;28;20150;-84
2022/08/28 00:30:26;;;;;;;5.28;2.10;;;;;;;;;;4996869;28;20704;-84
2022/08/28 00:32:53;;;;;;;4.18;2.00;;;;;;;;;;5002293;28;20495;-84
2022/08/28 00:35:19;;;;;;;3.05;1.77;;;;;;;;;;4998889;28;20122;-84
2022/08/28 00:37:46;;;;;;;6.38;2.10;;;;;;;;;;5009863;28;20562;-83
2022/08/28 00:40:14;;;;;;;3.78;2.22;;;;;;;;;;5010407;28;20040;-84
2022/08/28 00:42:41;;;;;;;5.03;1.95;;;;;;;;;;5012502;28;20515;-85
2022/08/28 00:45:07;;;;;;;4.10;2.25;;;;;;;;;;5018689;28;20037;-85
2022/08/28 00:47:33;;;;;;;4.68;2.00;;;;;;;;;;4991221;28;20038;-84
2022/08/28 00:50:00;;;;;;;5.15;2.00;;;;;;;;;;5007248;28;20030;-83
2022/08/28 00:52:26;;;;;;;3.65;2.15;;;;;;;;;;5010880;28;20114;-85
2022/08/28 00:55:00;;;;;;;3.95;2.10;;;;;;;;;;4989293;28;20038;-84
2022/08/28 00:57:39;;;;;;;4.28;2.45;;;;;;;;;;4987131;28;20091;-84
2022/08/28 01:00:18;;;;;;;3.85;1.98;;;;;;;;;;4992497;28;20041;-85
2022/08/28 01:02:44;;;;;;;2.38;1.92;;;;;;;;;;4995693;28;20404;-84
2022/08/28 01:05:10;;;;;;;6.90;2.25;;;;;;;;;;4997833;28;20527;-84
2022/08/28 01:07:37;;;;;;;3.50;2.05;;;;;;;;;;4991356;28;20018;-84
2022/08/28 01:10:06;;;;;;;6.18;2.30;;;;;;;;;;5008418;28;20034;-84
2022/08/28 01:12:32;;;;;;;3.58;1.95;;;;;;;;;;5011112;28;20105;-84
2022/08/28 01:15:00;;;;;;;6.20;2.05;;;;;;;;;;5012598;28;20083;-84
2022/08/28 01:17:30;;;;;;;9.85;2.20;;;;;;;;;;5018092;28;20038;-85
2022/08/28 01:19:59;;;;;;;6.88;2.38;;;;;;;;;;5011665;28;20546;-85
2022/08/28 01:22:36;;;;;;;5.97;1.98;;;;;;;;;;5013836;28;20022;-84
2022/08/28 01:25:51;;;;;;;8.70;2.10;;;;;;;;;;4995475;28;20052;-86
2022/08/28 01:28:11;;;;;;;5.22;2.10;;;;;;;;;;5001672;28;20515;-84
2022/08/28 01:30:43;;;;;;;7.45;2.10;;;;;;;;;;4991172;28;20041;-83
2022/08/28 01:33:09;;;;;;;5.10;2.08;;;;;;;;;;4996109;28;21200;-84
2022/08/28 01:35:38;;;;;;;4.85;1.85;;;;;;;;;;5016149;28;20111;-84
2022/08/28 01:38:04;;;;;;;4.90;1.63;;;;;;;;;;5007399;28;20068;-86
2022/08/28 01:40:35;;;;;;;4.50;2.10;;;;;;;;;;5015638;28;20426;-86
2022/08/28 01:43:17;;;;;;;3.97;2.05;;;;;;;;;;5011305;28;20042;-85
2022/08/28 01:45:53;;;;;;;3.90;2.10;;;;;;;;;;5002315;28;20108;-85
2022/08/28 01:48:20;;;;;;;3.63;1.63;;;;;;;;;;4998237;28;20034;-85
2022/08/28 01:50:46;;;;;;;4.35;2.03;;;;;;;;;;4997524;28;20117;-86
2022/08/28 01:53:18;;;;;;;4.90;2.13;;;;;;;;;;5018660;28;20041;-86
2022/08/28 01:55:44;;;;;;;2.95;1.90;;;;;;;;;;5019800;28;20021;-84
2022/08/28 01:58:11;;;;;;;7.38;2.30;;;;;;;;;;5019311;28;20044;-85
2022/08/28 02:00:37;;;;;;;3.22;1.80;;;;;;;;;;4990025;28;20061;-84
2022/08/28 02:03:03;;;;;;;8.75;2.60;;;;;;;;;;5009977;28;20699;-85
2022/08/28 02:05:31;;;;;;;7.53;2.40;;;;;;;;;;5001601;28;20041;-83
2022/08/28 02:07:57;;;;;;;4.20;2.15;;;;;;;;;;4994288;28;20029;-84
2022/08/28 02:10:25;;;;;;;3.80;1.83;;;;;;;;;;5007538;28;20014;-84
2022/08/28 02:12:52;;;;;;;3.72;2.10;;;;;;;;;;5008904;28;20038;-84
2022/08/28 02:15:17;;;;;;;6.85;2.05;;;;;;;;;;5005868;28;20068;-85
2022/08/28 02:17:43;;;;;;;6.30;1.90;;;;;;;;;;5001759;28;20075;-84
2022/08/28 02:20:09;;;;;;;4.10;1.83;;;;;;;;;;5006820;28;20030;-85
2022/08/28 02:22:34;;;;;;;6.10;2.30;;;;;;;;;;4987365;28;20026;-84
2022/08/28 02:25:00;;;;;;;9.23;2.22;;;;;;;;;;4998985;28;20062;-85
2022/08/28 02:27:26;;;;;;;6.00;2.13;;;;;;;;;;5008390;28;20038;-85
2022/08/28 02:29:51;;;;;;;9.80;2.10;;;;;;;;;;5006510;28;20574;-85
2022/08/28 02:32:17;;;;;;;6.07;2.00;;;;;;;;;;5005483;28;20061;-84
2022/08/28 02:34:43;;;;;;;6.88;1.90;;;;;;;;;;5005505;28;20032;-85
2022/08/28 02:37:12;;;;;;;5.32;2.30;;;;;;;;;;4982855;28;20027;-84
2022/08/28 02:39:37;;;;;;;3.67;2.10;;;;;;;;;;4981673;28;20044;-84
2022/08/28 02:42:03;;;;;;;4.05;1.95;;;;;;;;;;5000083;28;20034;-85
2022/08/28 02:44:28;;;;;;;4.97;1.70;;;;;;;;;;5010748;28;20041;-84
2022/08/28 02:46:54;;;;;;;7.47;2.28;;;;;;;;;;4993008;28;20662;-85
2022/08/28 02:49:19;;;;;;;4.18;2.00;;;;;;;;;;4990219;28;20391;-84
2022/08/28 02:51:44;;;;;;;4.15;2.03;;;;;;;;;;4992763;28;20060;-84
2022/08/28 02:54:10;;;;;;;5.40;2.17;;;;;;;;;;4992391;28;20439;-84
2022/08/28 02:56:35;;;;;;;5.40;2.03;;;;;;;;;;4993891;28;20060;-85
2022/08/28 02:59:01;;;;;;;4.30;2.17;;;;;;;;;;5006481;28;20025;-85
2022/08/28 03:01:26;;;;;;;4.40;1.75;;;;;;;;;;4989385;28;20022;-85
2022/08/28 03:03:51;;;;;;;4.13;2.08;;;;;;;;;;4999292;28;20034;-84
2022/08/28 03:06:17;;;;;;;6.78;1.92;;;;;;;;;;5000612;28;20653;-84
2022/08/28 03:08:43;;;;;;;7.57;2.00;;;;;;;;;;4991955;28;20526;-85
2022/08/28 03:11:10;;;;;;;4.57;2.10;;;;;;;;;;5008604;28;20056;-84
2022/08/28 03:13:36;;;;;;;5.10;2.17;;;;;;;;;;4986470;28;20075;-85
2022/08/28 03:16:03;;;;;;;7.20;1.92;;;;;;;;;;4980842;28;20467;-85
2022/08/28 03:18:29;;;;;;;5.97;1.85;;;;;;;;;;4990590;28;20099;-84
2022/08/28 03:20:54;;;;;;;4.45;2.10;;;;;;;;;;4987000;28;20038;-84
2022/08/28 03:23:27;;;;;;;7.50;2.30;;;;;;;;;;5016600;28;20062;-84
2022/08/28 03:26:01;;;;;;;7.88;2.25;;;;;;;;;;4990172;28;20066;-84
2022/08/28 03:28:38;;;;;;;4.38;2.00;;;;;;;;;;5000231;28;20057;-85
2022/08/28 03:31:08;;;;;;;6.05;1.75;;;;;;;;;;4987245;28;20052;-82
2022/08/28 03:33:33;;;;;;;6.10;1.98;;;;;;;;;;5006299;28;20031;-84
2022/08/28 03:35:59;;;;;;;3.85;2.13;;;;;;;;;;5007408;28;20033;-84
2022/08/28 03:38:25;;;;;;;8.48;2.33;;;;;;;;;;5003852;28;20577;-85
2022/08/28 03:40:50;;;;;;;4.63;2.15;;;;;;;;;;4979812;28;20084;-85
2022/08/28 03:43:20;;;;;;;4.63;1.98;;;;;;;;;;5015324;28;20049;-84
2022/08/28 03:46:01;;;;;;;8.73;2.42;;;;;;;;;;5006684;28;20041;-82
2022/08/28 03:48:28;;;;;;;7.88;2.25;;;;;;;;;;5009626;28;20042;-83
2022/08/28 03:50:54;;;;;;;7.38;2.20;;;;;;;;;;5006646;28;20034;-84
2022/08/28 03:53:22;;;;;;;5.97;2.00;;;;;;;;;;5003594;28;20042;-84
2022/08/28 03:55:48;;;;;;;4.50;2.15;;;;;;;;;;4992519;28;20427;-83
2022/08/28 03:58:22;;;;;;;4.63;2.50;;;;;;;;;;5051831;28;20398;-86
2022/08/28 04:00:49;;;;;;;7.40;2.42;;;;;;;;;;5010777;28;20062;-85
2022/08/28 04:03:14;;;;;;;6.22;2.25;;;;;;;;;;5002070;28;20042;-84
2022/08/28 04:05:42;;;;;;;4.53;2.05;;;;;;;;;;4997831;28;20050;-85
2022/08/28 04:08:08;;;;;;;5.75;2.40;;;;;;;;;;5001103;28;20045;-85
2022/08/28 04:10:35;;;;;;;4.30;2.05;;;;;;;;;;4998180;28;20048;-85
2022/08/28 04:13:02;;;;;;;5.78;2.38;;;;;;;;;;5002289;28;20038;-85
2022/08/28 04:15:27;;;;;;;6.20;2.00;;;;;;;;;;4998310;28;20042;-84
2022/08/28 04:17:53;;;;;;;7.20;2.60;;;;;;;;;;5001918;28;20592;-86
2022/08/28 04:20:19;;;;;;;4.53;2.40;;;;;;;;;;5000282;28;20044;-84
2022/08/28 04:22:46;;;;;;;8.73;2.63;;;;;;;;;;4987332;28;20023;-85
2022/08/28 04:25:11;;;;;;;5.38;2.50;;;;;;;;;;4980910;28;20042;-86
2022/08/28 04:27:37;;;;;;;8.25;2.83;;;;;;;;;;4977941;28;20046;-84
2022/08/28 04:30:03;;;;;;;4.63;2.53;;;;;;;;;;4977984;28;20031;-86
2022/08/28 04:32:28;;;;;;;7.30;2.38;;;;;;;;;;4977026;28;20065;-86
2022/08/28 04:34:54;;;;;;;4.20;2.28;;;;;;;;;;4984483;28;20014;-86
2022/08/28 04:37:19;;;;;;;4.18;2.60;;;;;;;;;;4980874;28;20034;-86
2022/08/28 04:39:45;;;;;;;6.85;2.65;;;;;;;;;;4973091;28;20043;-84
2022/08/28 04:42:10;;;;;;;5.05;2.45;;;;;;;;;;4981797;28;20045;-85
2022/08/28 04:44:35;;;;;;;6.95;2.50;;;;;;;;;;4978319;28;20420;-85
2022/08/28 04:47:01;;;;;;;7.00;2.47;;;;;;;;;;4982670;28;20076;-85
2022/08/28 04:49:26;;;;;;;7.50;2.38;;;;;;;;;;4984928;28;20023;-85
2022/08/28 04:51:52;;;;;;;5.88;2.83;;;;;;;;;;4979497;28;20445;-85
2022/08/28 04:54:18;;;;;;;7.78;2.42;;;;;;;;;;4983860;28;20073;-85
2022/08/28 04:56:44;;;;;;;9.07;2.67;;;;;;;;;;4987089;28;20046;-86
2022/08/28 04:59:10;;;;;;;5.72;2.50;;;;;;;;;;4982370;28;20042;-86
2022/08/28 05:01:36;;;;;;;8.25;2.58;;;;;;;;;;4982060;28;20030;-83
2022/08/28 05:04:02;;;;;;;5.18;2.60;;;;;;;;;;4979913;28;20397;-86
2022/08/28 05:06:30;;;;;;;6.82;2.65;;;;;;;;;;4983511;28;20093;-85
2022/08/28 05:08:58;;;;;;;7.20;3.05;;;;;;;;;;4965712;28;20062;-85
2022/08/28 05:11:25;;;;;;;6.80;2.53;;;;;;;;;;4965937;28;20043;-86
2022/08/28 05:13:51;;;;;;;6.60;2.78;;;;;;;;;;4972161;28;20444;-86
2022/08/28 05:16:18;;;;;;;7.43;2.83;;;;;;;;;;4965259;28;20061;-85
2022/08/28 05:18:44;;;;;;;6.47;2.63;;;;;;;;;;4957263;28;20190;-85
2022/08/28 05:21:11;;;;;;;7.18;2.58;;;;;;;;;;4977672;28;20149;-86
2022/08/28 05:23:36;;;;;;;5.35;2.70;;;;;;;;;;4981620;28;20485;-85
2022/08/28 05:26:02;;;;;;;8.73;2.75;;;;;;;;;;4967771;28;20612;-86
2022/08/28 05:28:27;;;;;;;8.25;2.30;;;;;;;;;;4971956;28;20572;-85
2022/08/28 05:30:52;;;;;;;6.53;2.55;;;;;;;;;;4967981;28;20042;-86
2022/08/28 05:33:18;;;;;;;5.75;2.42;;;;;;;;;;4968700;28;20581;-86
2022/08/28 05:35:45;;;;;;;7.28;2.58;;;;;;;;;;4967514;28;20039;-85
2022/08/28 05:38:12;;;;;;;4.60;2.45;;;;;;;;;;4966211;28;20129;-83
2022/08/28 05:40:45;;;;;;;7.20;2.45;;;;;;;;;;4955871;28;20109;-86
2022/08/28 05:43:13;;;;;;;6.90;2.53;;;;;;;;;;4965336;28;20054;-85
2022/08/28 05:45:39;;;;;;;7.45;2.95;;;;;;;;;;4964306;28;20045;-85
2022/08/28 05:48:04;;;;;;;7.38;2.63;;;;;;;;;;4965829;28;20043;-85
2022/08/28 05:50:30;;;;;;;6.25;2.70;;;;;;;;;;4967113;28;20035;-85
2022/08/28 05:52:56;;;;;;;10.30;3.55;;;;;;;;;;4969309;28;20125;-84
2022/08/28 05:55:21;;;;;;;5.50;2.63;;;;;;;;;;4963087;28;20027;-84
2022/08/28 05:57:47;;;;;;;6.80;3.00;;;;;;;;;;4965136;28;20125;-84
2022/08/28 06:00:13;;;;;;;5.88;2.35;;;;;;;;;;4973441;28;20054;-85
2022/08/28 06:02:40;;;;;;;4.85;2.60;;;;;;;;;;4962276;28;20043;-84
2022/08/28 06:05:06;;;;;;;7.47;2.58;;;;;;;;;;4968508;28;20596;-84
2022/08/28 06:07:32;;;;;;;11.00;2.75;;;;;;;;;;4978862;28;20027;-84
2022/08/28 06:09:57;;;;;;;7.25;2.97;;;;;;;;;;4970079;28;20665;-84
2022/08/28 06:12:23;;;;;;;7.25;2.75;;;;;;;;;;4963702;28;20050;-85
2022/08/28 06:14:48;;;;;;;5.55;2.28;;;;;;;;;;4970703;28;20031;-85
2022/08/28 06:17:14;;;;;;;6.82;2.80;;;;;;;;;;4979036;28;20047;-84
2022/08/28 06:19:39;;;;;;;7.20;2.25;;;;;;;;;;4958329;28;20059;-83
2022/08/28 06:22:05;;;;;;;5.70;2.40;;;;;;;;;;4958272;28;20039;-83
2022/08/28 06:24:30;;;;;;;7.45;2.22;;;;;;;;;;4963287;28;20070;-84
2022/08/28 06:26:57;;;;;;;7.53;2.72;;;;;;;;;;4961203;28;20067;-84
2022/08/28 06:29:22;;;;;;;8.25;3.05;;;;;;;;;;4956670;28;20039;-84
2022/08/28 06:32:00;;;;;;;7.10;2.45;;;;;;;;;;4963378;28;20030;-84
2022/08/28 06:34:27;;;;;;;6.88;2.60;;;;;;;;;;4993989;28;20068;-85
2022/08/28 06:36:53;;;;;;;8.55;2.50;;;;;;;;;;4974258;28;20046;-86
2022/08/28 06:39:18;;;;;;;8.20;2.47;;;;;;;;;;4971423;28;20050;-83
2022/08/28 06:41:44;;;;;;;6.93;2.28;;;;;;;;;;4973364;28;21095;-84
2022/08/28 06:44:12;;;;;;;12.88;2.30;;;;;;;;;;4976186;28;20386;-83
2022/08/28 06:46:38;;;;;;;5.47;2.30;;;;;;;;;;4973824;28;20027;-83
2022/08/28 06:49:06;;;;;;;8.07;2.40;;;;;;;;;;4981745;28;20035;-84
2022/08/28 06:51:31;;;;;;;8.45;2.20;;;;;;;;;;4971464;28;20043;-84
2022/08/28 06:53:57;;;;;;;5.18;2.22;;;;;;;;;;4977888;28;20050;-83
2022/08/28 06:56:23;;;;;;;9.55;2.33;;;;;;;;;;4976200;28;20497;-83
2022/08/28 06:58:50;;;;;;;4.97;2.05;;;;;;;;;;4981253;28;20022;-85
2022/08/28 07:01:25;;;;;;;6.93;2.50;;;;;;;;;;4989237;28;20054;-86
2022/08/28 07:03:52;;;;;;;8.48;2.00;;;;;;;;;;4999533;28;20415;-84
2022/08/28 07:06:21;;;;;;;4.97;2.22;;;;;;;;;;4976696;28;20040;-83
2022/08/28 07:08:47;;;;;;;9.38;2.60;;;;;;;;;;4981787;28;20522;-83
2022/08/28 07:11:19;;;;;;;8.18;2.33;;;;;;;;;;4978808;28;20029;-82
2022/08/28 07:13:45;;;;;;;7.60;2.20;;;;;;;;;;4983275;28;20096;-85
2022/08/28 07:16:13;;;;;;;7.30;2.45;;;;;;;;;;4977448;28;20046;-84
2022/08/28 07:18:39;;;;;;;6.70;1.85;;;;;;;;;;4980590;28;20076;-85
2022/08/28 07:21:04;;;;;;;7.70;2.28;;;;;;;;;;4980001;28;20058;-82
2022/08/28 07:23:33;;;;;;;5.57;2.15;;;;;;;;;;4980989;28;20551;-82
2022/08/28 07:26:02;;;;;;;8.73;2.20;;;;;;;;;;4958641;28;20030;-84
2022/08/28 07:28:28;;;;;;;7.95;2.00;;;;;;;;;;4964382;28;20052;-83
2022/08/28 07:31:24;;;;;;;7.78;2.17;;;;;;;;;;4962252;28;20052;-84
2022/08/28 07:33:51;;;;;;;4.38;2.38;;;;;;;;;;4968775;28;20039;-82
2022/08/28 07:36:19;;;;;;;5.15;2.08;;;;;;;;;;4963334;28;20066;-84
2022/08/28 07:38:46;;;;;;;3.33;1.80;;;;;;;;;;4964436;28;20077;-84
2022/08/28 07:41:18;;;;;;;7.70;2.00;;;;;;;;;;4959999;28;20731;-85
2022/08/28 07:46:28;;;;;;;7.45;2.20;;;;;;;;;;4982375;28;20076;-85
2022/08/28 07:48:53;;;;;;;14.57;3.28;;;;;;;;;;4990886;28;20649;-85
2022/08/28 07:51:19;;;;;;;5.70;2.15;;;;;;;;;;4986046;28;20129;-83
2022/08/28 07:53:45;;;;;;;6.10;2.25;;;;;;;;;;4985443;28;20561;-83
2022/08/28 07:56:11;;;;;;;4.93;1.98;;;;;;;;;;4984235;28;20130;-85
2022/08/28 07:58:37;;;;;;;4.07;2.00;;;;;;;;;;4992122;28;20443;-84
2022/08/28 08:01:03;;;;;;;5.20;2.03;;;;;;;;;;4984656;28;20038;-84
2022/08/28 08:03:32;;;;;;;5.68;2.08;;;;;;;;;;4978183;28;20034;-86
2022/08/28 08:06:03;;;;;;;6.93;2.17;;;;;;;;;;4982863;28;20053;-83
2022/08/28 08:08:30;;;;;;;8.75;2.35;;;;;;;;;;4992123;28;20070;-84
2022/08/28 08:11:02;;;;;;;5.25;2.40;;;;;;;;;;4976062;28;20436;-84
2022/08/28 08:13:29;;;;;;;9.90;1.98;;;;;;;;;;4976985;28;20511;-83
2022/08/28 08:16:04;;;;;;;8.40;2.15;;;;;;;;;;4981587;28;20045;-83
2022/08/28 08:18:29;;;;;;;4.20;2.00;;;;;;;;;;4974000;28;20043;-84
2022/08/28 08:20:55;;;;;;;8.20;1.90;;;;;;;;;;4984056;28;20093;-83
2022/08/28 08:23:20;;;;;;;8.32;2.10;;;;;;;;;;4977989;28;20075;-83
2022/08/28 08:26:00;;;;;;;6.10;1.90;;;;;;;;;;4983071;28;20411;-82
2022/08/28 08:28:27;;;;;;;4.95;1.95;;;;;;;;;;4991890;28;20127;-83
2022/08/28 08:31:27;;;;;;;7.75;1.88;;;;;;;;;;4981243;28;20101;-85
2022/08/28 08:33:57;;;;;;;6.45;1.77;;;;;;;;;;4973175;28;20072;-84
2022/08/28 08:36:24;;;;;;;8.05;2.00;;;;;;;;;;4993481;28;20042;-83
2022/08/28 08:38:51;;;;;;;3.10;1.77;;;;;;;;;;4982758;28;20039;-84
2022/08/28 08:41:22;;;;;;;2.55;1.42;;;;;;;;;;4991568;28;21288;-84
2022/08/28 08:43:57;;;;;;;4.68;2.10;;;;;;;;;;4980992;28;20096;-85
2022/08/28 08:46:31;;;;;;;3.72;1.75;;;;;;;;;;4961239;28;20093;-83
2022/08/28 08:49:01;;;;;;;6.00;1.85;;;;;;;;;;4979124;28;20532;-84
2022/08/28 08:51:39;;;;;;;5.35;1.80;;;;;;;;;;4997389;28;20046;-83
2022/08/28 08:54:11;;;;;;;3.95;1.80;;;;;;;;;;4977567;28;20051;-84
2022/08/28 08:56:39;;;;;;;5.70;1.65;;;;;;;;;;4964315;28;20101;-84
2022/08/28 08:59:11;;;;;;;6.03;1.75;;;;;;;;;;4972335;28;20035;-84
2022/08/28 09:01:54;;;;;;;4.40;1.40;;;;;;;;;;4999192;28;20026;-86
2022/08/28 09:04:30;;;;;;;7.45;1.60;;;;;;;;;;4962193;28;20058;-86
2022/08/28 09:07:17;;;;;;;3.05;1.60;;;;;;;;;;4948081;28;20039;-88
2022/08/28 09:10:01;;;;;;;6.18;2.08;;;;;;;;;;4960698;28;20592;-86
2022/08/28 09:12:29;;;;;;;5.93;1.70;;;;;;;;;;4960969;28;20047;-87
2022/08/28 09:15:04;;;;;;;5.80;1.52;;;;;;;;;;4958433;28;20791;-86
2022/08/28 09:17:34;;;;;;;5.60;1.75;;;;;;;;;;4960856;28;20693;-85
2022/08/28 09:20:00;;;;;;;11.63;1.83;;;;;;;;;;4966737;28;20567;-86
2022/08/28 09:22:26;;;;;;;8.13;1.83;;;;;;;;;;4955645;28;20107;-88
2022/08/28 09:24:51;;;;;;;5.68;1.80;;;;;;;;;;4956018;28;20102;-88
2022/08/28 09:27:26;;;;;;;4.45;1.80;;;;;;;;;;4968120;28;20054;-85
2022/08/28 09:29:56;;;;;;;4.45;1.73;;;;;;;;;;4965451;28;20043;-86
2022/08/28 09:32:45;;;;;;;8.15;1.70;;;;;;;;;;4963832;28;20047;-87
2022/08/28 09:35:22;;;;;;;4.80;1.80;;;;;;;;;;4964855;28;20051;-87
2022/08/28 09:37:48;;;;;;;6.90;1.45;;;;;;;;;;4967288;28;20037;-86
2022/08/28 09:40:15;;;;;;;4.50;1.63;;;;;;;;;;4961535;28;20645;-87
2022/08/28 09:45:41;;;;;;;2.80;1.63;;;;;;;;;;4967258;28;20057;-84
2022/08/28 09:48:20;;;;;;;9.23;1.75;;;;;;;;;;4967875;28;20038;-86
2022/08/28 09:51:03;;;;;;;13.70;2.28;;;;;;;;;;4973226;28;20038;-84
2022/08/28 09:53:33;;;;;;;6.30;1.77;;;;;;;;;;4977068;28;20039;-86
2022/08/28 09:56:14;;;;;;;2.50;1.40;;;;;;;;;;4962305;28;20036;-84
2022/08/28 09:58:44;;;;;;;4.78;1.70;;;;;;;;;;4961231;28;20030;-85
2022/08/28 10:01:38;;;;;;;5.30;1.95;;;;;;;;;;4961328;28;20027;-85
2022/08/28 10:04:28;;;;;;;5.32;1.80;;;;;;;;;;4955905;28;20027;-85
2022/08/28 10:07:10;;;;;;;3.88;1.60;;;;;;;;;;4964230;28;20034;-85
2022/08/28 10:09:44;;;;;;;6.65;2.22;;;;;;;;;;4962955;28;20055;-85
2022/08/28 10:12:13;;;;;;;4.28;1.90;;;;;;;;;;4961521;28;20030;-86
2022/08/28 10:14:54;;;;;;;7.63;2.05;;;;;;;;;;4961164;28;20053;-86
2022/08/28 10:17:45;;;;;;;3.40;1.63;;;;;;;;;;4961840;28;20488;-86
2022/08/28 10:20:30;;;;;;;2.72;1.40;;;;;;;;;;4963996;28;20050;-86
2022/08/28 10:23:03;;;;;;;5.70;2.00;;;;;;;;;;4972799;28;20073;-86
2022/08/28 10:25:38;;;;;;;6.75;1.75;;;;;;;;;;4963831;28;20043;-84
2022/08/28 10:28:06;;;;;;;5.20;2.10;;;;;;;;;;4983304;28;20034;-85
2022/08/28 10:30:37;;;;;;;6.78;2.08;;;;;;;;;;4977552;28;20460;-87
2022/08/28 10:33:29;;;;;;;4.43;1.55;;;;;;;;;;4965185;28;20086;-86
2022/08/28 10:36:08;;;;;;;7.20;1.60;;;;;;;;;;4964210;28;20639;-88
2022/08/28 10:38:45;;;;;;;5.20;1.80;;;;;;;;;;4963579;28;20124;-87
2022/08/28 10:41:25;;;;;;;3.00;1.90;;;;;;;;;;4958480;28;20065;-85
2022/08/28 10:43:53;;;;;;;3.70;1.80;;;;;;;;;;4975514;28;20030;-86
2022/08/28 10:46:23;;;;;;;5.43;1.70;;;;;;;;;;4954741;28;20465;-89
2022/08/28 10:49:16;;;;;;;5.90;1.80;;;;;;;;;;4959776;28;20053;-88
2022/08/28 10:51:45;;;;;;;4.20;1.70;;;;;;;;;;4954543;28;20476;-87
2022/08/28 10:54:26;;;;;;;6.60;2.00;;;;;;;;;;4955823;28;20089;-86
2022/08/28 10:57:26;;;;;;;7.78;1.90;;;;;;;;;;4958055;28;20045;-87
2022/08/28 10:59:53;;;;;;;4.28;1.70;;;;;;;;;;4936770;28;20047;-88
2022/08/28 11:02:24;;;;;;;6.40;1.83;;;;;;;;;;4957130;28;20518;-87
2022/08/28 11:04:51;;;;;;;5.13;1.90;;;;;;;;;;4958669;28;20030;-88
2022/08/28 11:07:27;;;;;;;3.08;1.65;;;;;;;;;;4965048;28;20042;-90
2022/08/28 11:09:53;;;;;;;3.13;1.80;;;;;;;;;;4962651;28;20043;-88
2022/08/28 11:12:18;;;;;;;7.88;1.92;;;;;;;;;;4959379;28;20043;-87
2022/08/28 11:14:52;;;;;;;3.80;1.52;;;;;;;;;;4972048;28;20078;-88
2022/08/28 11:17:20;;;;;;;2.55;1.40;;;;;;;;;;4962529;28;20047;-89
2022/08/28 11:20:08;;;;;;;2.65;1.77;;;;;;;;;;4982029;28;20488;-88
2022/08/28 11:22:40;;;;;;;3.70;1.52;;;;;;;;;;4986335;28;20137;-88
2022/08/28 11:25:21;;;;;;;4.57;1.80;;;;;;;;;;4967421;28;20039;-88
2022/08/28 11:28:18;;;;;;;3.80;1.73;;;;;;;;;;4955688;28;20544;-87
2022/08/28 11:31:02;;;;;;;6.72;1.65;;;;;;;;;;4968149;28;20129;-88
2022/08/28 11:33:33;;;;;;;3.63;1.45;;;;;;;;;;4970282;28;20042;-88
2022/08/28 11:35:59;;;;;;;6.55;1.60;;;;;;;;;;4960168;28;20061;-85
2022/08/28 11:38:39;;;;;;;3.85;1.40;;;;;;;;;;4958011;28;20125;-89
2022/08/28 11:41:21;;;;;;;2.97;1.35;;;;;;;;;;4961246;28;20153;-88
2022/08/28 11:44:13;;;;;;;3.85;1.35;;;;;;;;;;4971265;28;20399;-88
2022/08/28 11:46:42;;;;;;;4.80;1.50;;;;;;;;;;4951933;28;20105;-89
2022/08/28 11:49:23;;;;;;;4.88;1.40;;;;;;;;;;4959244;28;20039;-89
2022/08/28 11:52:11;;;;;;;5.78;1.60;;;;;;;;;;4956996;28;20057;-87
2022/08/28 11:54:52;;;;;;;5.97;1.60;;;;;;;;;;4957037;28;20046;-91
2022/08/28 11:57:42;;;;;;;3.47;1.65;;;;;;;;;;4982215;28;20147;-89
2022/08/28 12:00:42;;;;;;;2.95;1.42;;;;;;;;;;4968484;28;20528;-88
2022/08/28 12:03:12;;;;;;;2.33;1.20;;;;;;;;;;4971348;28;20058;-88
2022/08/28 12:05:44;;;;;;;4.68;1.83;;;;;;;;;;4967890;28;20057;-89
2022/08/28 12:08:11;;;;;;;3.47;1.33;;;;;;;;;;4967301;28;20023;-87
2022/08/28 12:10:36;;;;;;;3.50;1.30;;;;;;;;;;4960729;28;20037;-90
2022/08/28 12:13:07;;;;;;;2.15;1.33;;;;;;;;;;4964840;28;20051;-89
2022/08/28 12:15:33;;;;;;;4.30;1.45;;;;;;;;;;4961398;28;20051;-87
2022/08/28 12:18:11;;;;;;;3.17;1.40;;;;;;;;;;4959988;28;20049;-86
2022/08/28 12:20:49;;;;;;;3.42;1.55;;;;;;;;;;4973149;28;20822;-89
2022/08/28 12:23:30;;;;;;;7.97;1.70;;;;;;;;;;4960864;28;20072;-89
2022/08/28 12:26:05;;;;;;;2.92;1.50;;;;;;;;;;4964202;28;20054;-88
2022/08/28 12:28:37;;;;;;;3.78;1.50;;;;;;;;;;4970210;28;20026;-89
2022/08/28 12:31:03;;;;;;;3.15;1.40;;;;;;;;;;4964634;28;20046;-89
2022/08/28 12:33:32;;;;;;;4.13;1.40;;;;;;;;;;4970429;28;20046;-87
2022/08/28 12:36:01;;;;;;;6.28;1.60;;;;;;;;;;4967114;28;20069;-85
2022/08/28 12:38:31;;;;;;;2.45;1.40;;;;;;;;;;4962794;28;20129;-86
2022/08/28 12:40:57;;;;;;;3.83;1.40;;;;;;;;;;4964818;28;20090;-89
2022/08/28 12:43:30;;;;;;;1.77;1.30;;;;;;;;;;4968429;28;20564;-87
2022/08/28 12:46:11;;;;;;;2.83;1.20;;;;;;;;;;4970790;28;20030;-88
2022/08/28 12:48:50;;;;;;;4.32;1.40;;;;;;;;;;4983131;28;20044;-86
2022/08/28 12:51:32;;;;;;;3.22;1.40;;;;;;;;;;4986643;28;20051;-89
2022/08/28 12:54:04;;;;;;;3.45;1.95;;;;;;;;;;4990205;28;20381;-88
2022/08/28 12:56:33;;;;;;;5.60;1.60;;;;;;;;;;4971543;28;20063;-87
2022/08/28 12:59:24;;;;;;;5.10;1.50;;;;;;;;;;4984247;28;20034;-84
2022/08/28 13:01:50;;;;;;;4.55;1.63;;;;;;;;;;4996978;28;20052;-85
2022/08/28 13:04:32;;;;;;;2.78;1.15;;;;;;;;;;4986660;28;20038;-85
2022/08/28 13:07:16;;;;;;;3.58;1.23;;;;;;;;;;4984812;28;20049;-88
2022/08/28 13:09:51;;;;;;;3.38;1.20;;;;;;;;;;4987207;28;20049;-85
2022/08/28 13:12:25;;;;;;;7.43;1.90;;;;;;;;;;4968922;28;20097;-85
2022/08/28 13:14:51;;;;;;;2.72;1.27;;;;;;;;;;4966321;28;20046;-84
2022/08/28 13:17:47;;;;;;;6.18;1.50;;;;;;;;;;4955434;28;20449;-83
2022/08/28 13:20:31;;;;;;;5.15;1.60;;;;;;;;;;4962055;28;20058;-84
2022/08/28 13:22:58;;;;;;;3.13;1.23;;;;;;;;;;4963567;28;20027;-84
2022/08/28 13:25:27;;;;;;;2.15;1.33;;;;;;;;;;4982024;28;20039;-85
2022/08/28 13:28:13;;;;;;;3.72;1.08;;;;;;;;;;4981385;28;20049;-85
2022/08/28 13:30:39;;;;;;;3.80;1.23;;;;;;;;;;4983872;28;20133;-85
2022/08/28 13:33:24;;;;;;;3.55;1.33;;;;;;;;;;4983456;28;20121;-83
2022/08/28 13:35:52;;;;;;;2.15;1.20;;;;;;;;;;4985250;28;20034;-85
2022/08/28 13:38:19;;;;;;;2.72;1.27;;;;;;;;;;4984913;28;20491;-82
2022/08/28 13:40:50;;;;;;;3.35;1.13;;;;;;;;;;4982898;28;20100;-85
2022/08/28 13:43:17;;;;;;;7.68;1.38;;;;;;;;;;4983166;28;20046;-84
2022/08/28 13:45:46;;;;;;;3.72;1.40;;;;;;;;;;4979002;28;20078;-84
2022/08/28 13:48:14;;;;;;;2.75;1.50;;;;;;;;;;4971508;28;20135;-84
2022/08/28 13:50:49;;;;;;;3.15;1.20;;;;;;;;;;4965056;28;20050;-86
2022/08/28 13:53:17;;;;;;;4.00;1.52;;;;;;;;;;4960649;28;20058;-83
2022/08/28 13:55:43;;;;;;;5.18;1.25;;;;;;;;;;4978697;28;20041;-84
2022/08/28 13:58:09;;;;;;;4.43;1.40;;;;;;;;;;4963086;28;20043;-84
2022/08/28 14:00:39;;;;;;;2.00;1.15;;;;;;;;;;4972886;28;20532;-84
2022/08/28 14:05:48;;;;;;;1.98;1.30;;;;;;;;;;4983644;28;20742;-85
2022/08/28 14:08:14;;;;;;;1.98;1.10;;;;;;;;;;4981945;28;20038;-84
2022/08/28 14:10:39;;;;;;;2.42;1.20;;;;;;;;;;4984802;28;20030;-83
2022/08/28 14:13:05;;;;;;;3.05;1.20;;;;;;;;;;4980308;28;20043;-83
2022/08/28 14:15:30;;;;;;;2.83;1.23;;;;;;;;;;4979100;28;20042;-83
2022/08/28 14:17:56;;;;;;;3.83;1.30;;;;;;;;;;4987035;28;20058;-85
2022/08/28 14:20:22;;;;;;;1.73;1.00;;;;;;;;;;4984596;28;20330;-84
2022/08/28 14:22:47;;;;;;;3.92;1.10;;;;;;;;;;4981256;28;20104;-84
2022/08/28 14:25:12;;;;;;;3.00;1.30;;;;;;;;;;4985492;28;20057;-85
2022/08/28 14:27:38;;;;;;;1.88;1.10;;;;;;;;;;4975847;28;20046;-85
2022/08/28 14:30:06;;;;;;;2.90;1.40;;;;;;;;;;4981981;28;20719;-84
2022/08/28 14:32:31;;;;;;;2.92;1.20;;;;;;;;;;4985644;28;20074;-84
2022/08/28 14:35:00;;;;;;;2.40;1.40;;;;;;;;;;4986161;28;20467;-84
2022/08/28 14:37:26;;;;;;;2.22;1.20;;;;;;;;;;4983703;28;20030;-84
2022/08/28 14:39:51;;;;;;;3.50;1.50;;;;;;;;;;4983625;28;20053;-84
2022/08/28 14:42:18;;;;;;;3.50;1.40;;;;;;;;;;4976685;28;20069;-85
2022/08/28 14:44:44;;;;;;;2.17;1.10;;;;;;;;;;4977496;28;20062;-85
2022/08/28 14:47:09;;;;;;;1.40;1.10;;;;;;;;;;4975066;28;20899;-85
2022/08/28 14:49:35;;;;;;;3.85;1.30;;;;;;;;;;4980185;28;20036;-85
2022/08/28 14:52:00;;;;;;;3.00;1.23;;;;;;;;;;4988803;28;20564;-84
2022/08/28 14:54:26;;;;;;;4.32;1.45;;;;;;;;;;4982971;28;20046;-85
2022/08/28 14:56:53;;;;;;;4.40;1.30;;;;;;;;;;4984791;28;20041;-85
2022/08/28 14:59:23;;;;;;;3.35;1.20;;;;;;;;;;4982498;28;20062;-84
2022/08/28 15:01:49;;;;;;;6.75;1.67;;;;;;;;;;4993622;28;20100;-85
2022/08/28 15:04:17;;;;;;;3.30;1.50;;;;;;;;;;4982803;28;20109;-84
2022/08/28 15:06:43;;;;;;;2.15;1.10;;;;;;;;;;4994758;28;20026;-84
2022/08/28 15:09:11;;;;;;;1.60;1.13;;;;;;;;;;4987103;28;20520;-82